Time;durP1;ratioP1;P1;durP2;ratioP2;P2;SDS_P1;SDS_P2;PMS_P1;PMS_P2;Temp;Humidity;BMP_temperature;BMP_pressure;BME280_temperature;BME280_humidity;BME280_pressure;Samples;Min_cycle;Max_cycle;Signal;HPM_P1;HPM_P2
2021/12/02 00:00:28;;;;;;;12.57;7.88;;;8.70;81.40;;;;;;5028811;28;20041;-44
2021/12/02 00:02:56;;;;;;;11.77;8.02;;;8.70;81.40;;;;;;5030889;28;20120;-44
2021/12/02 00:05:25;;;;;;;8.38;7.18;;;8.70;81.40;;;;;;5029142;28;20126;-44
2021/12/02 00:07:55;;;;;;;10.32;7.70;;;8.70;81.30;;;;;;5018941;28;20049;-44
2021/12/02 00:10:31;;;;;;;10.20;7.20;;;8.70;81.40;;;;;;5027580;28;20091;-43
2021/12/02 00:13:03;;;;;;;10.85;7.15;;;8.70;81.40;;;;;;5029523;28;20049;-45
2021/12/02 00:15:36;;;;;;;9.98;6.63;;;8.70;81.40;;;;;;5007694;28;20046;-44
2021/12/02 00:21:07;;;;;;;6.35;5.00;;;8.70;82.00;;;;;;5014915;28;20041;-45
2021/12/02 00:23:52;;;;;;;8.57;4.68;;;8.70;81.40;;;;;;5027991;28;20460;-44
2021/12/02 00:26:21;;;;;;;10.52;5.60;;;8.80;81.30;;;;;;5016300;28;20038;-44
2021/12/02 00:28:52;;;;;;;8.00;5.25;;;8.70;81.20;;;;;;5028870;28;20045;-44
2021/12/02 00:31:24;;;;;;;6.97;5.68;;;8.70;81.10;;;;;;5029960;28;20033;-45
2021/12/02 00:33:53;;;;;;;14.10;5.97;;;8.70;81.10;;;;;;5018697;28;20108;-44
2021/12/02 00:36:24;;;;;;;8.65;4.32;;;8.70;81.00;;;;;;5014852;28;20061;-44
2021/12/02 00:38:52;;;;;;;5.85;4.00;;;8.70;80.90;;;;;;5027415;28;20504;-43
2021/12/02 00:41:21;;;;;;;8.88;4.85;;;8.70;81.00;;;;;;5029609;28;20049;-44
2021/12/02 00:43:53;;;;;;;9.40;6.60;;;8.70;81.00;;;;;;5014415;28;20467;-45
2021/12/02 00:46:27;;;;;;;8.05;5.80;;;8.70;81.00;;;;;;5028950;28;20091;-44
2021/12/02 00:49:01;;;;;;;6.55;4.80;;;8.70;81.00;;;;;;5028830;28;20046;-44
2021/12/02 00:51:34;;;;;;;7.22;4.18;;;8.70;80.90;;;;;;5017513;28;20413;-45
2021/12/02 00:54:06;;;;;;;5.05;3.25;;;8.70;81.00;;;;;;5003848;28;20050;-44
2021/12/02 00:56:34;;;;;;;5.28;2.92;;;8.70;80.90;;;;;;5020634;28;20049;-44
2021/12/02 00:59:01;;;;;;;6.00;3.28;;;8.70;80.90;;;;;;5028652;28;20041;-43
2021/12/02 01:01:34;;;;;;;5.75;2.80;;;8.70;80.80;;;;;;5029657;28;20417;-45
2021/12/02 01:04:15;;;;;;;6.05;3.25;;;8.70;80.80;;;;;;5010051;28;20072;-45
2021/12/02 01:06:45;;;;;;;5.22;3.33;;;8.70;80.80;;;;;;5020040;28;20076;-44
2021/12/02 01:09:14;;;;;;;;;;;8.70;80.70;;;;;;5022063;28;20121;-45
2021/12/02 01:11:42;;;;;;;6.45;3.03;;;8.80;80.80;;;;;;5007127;28;20274;-44
2021/12/02 01:14:11;;;;;;;5.10;2.60;;;8.70;80.60;;;;;;5020831;28;20044;-44
2021/12/02 01:16:38;;;;;;;5.88;3.30;;;8.70;80.60;;;;;;5021106;28;20045;-44
2021/12/02 01:19:06;;;;;;;4.78;2.38;;;8.70;80.60;;;;;;5029242;28;20489;-44
2021/12/02 01:21:37;;;;;;;9.25;3.20;;;8.70;80.50;;;;;;5013697;28;20089;-45
2021/12/02 01:24:07;;;;;;;8.30;3.50;;;8.70;80.50;;;;;;5025853;28;20046;-45
2021/12/02 01:26:34;;;;;;;6.35;2.97;;;8.70;80.50;;;;;;5029322;28;20493;-45
2021/12/02 01:29:03;;;;;;;3.88;2.33;;;8.70;80.50;;;;;;5018511;28;20069;-44
2021/12/02 01:31:36;;;;;;;4.93;2.90;;;8.70;80.50;;;;;;5012953;28;20568;-44
2021/12/02 01:34:07;;;;;;;7.65;3.13;;;8.70;80.40;;;;;;5026149;28;20045;-43
2021/12/02 01:36:43;;;;;;;3.95;2.65;;;8.70;80.30;;;;;;5028976;28;20073;-46
2021/12/02 01:39:10;;;;;;;4.68;2.67;;;8.70;80.10;;;;;;5022460;28;20084;-45
2021/12/02 01:41:56;;;;;;;5.95;2.28;;;8.70;80.20;;;;;;5014274;28;20128;-43
2021/12/02 01:44:24;;;;;;;4.78;2.20;;;8.70;79.90;;;;;;5028843;28;20076;-44
2021/12/02 01:46:54;;;;;;;4.93;2.58;;;8.70;80.00;;;;;;5028807;28;20065;-45
2021/12/02 01:49:26;;;;;;;5.37;2.03;;;8.70;79.80;;;;;;5001846;28;20121;-44
2021/12/02 01:51:56;;;;;;;6.88;2.58;;;8.70;79.80;;;;;;5018277;28;20046;-44
2021/12/02 01:54:25;;;;;;;5.40;1.83;;;8.60;79.70;;;;;;5028711;28;20044;-44
2021/12/02 01:57:06;;;;;;;7.32;2.67;;;8.60;79.60;;;;;;5029130;28;20084;-45
2021/12/02 01:59:37;;;;;;;4.63;1.80;;;8.70;79.50;;;;;;5014642;28;20039;-45
2021/12/02 02:02:07;;;;;;;3.47;2.10;;;8.60;79.70;;;;;;5017723;28;20041;-44
2021/12/02 02:04:34;;;;;;;5.13;1.95;;;8.60;79.60;;;;;;5027431;28;20041;-46
2021/12/02 02:07:17;;;;;;;5.53;2.30;;;8.60;79.80;;;;;;5022304;28;20096;-44
2021/12/02 02:09:44;;;;;;;2.95;1.50;;;8.60;79.70;;;;;;5007171;28;20038;-45
2021/12/02 02:12:13;;;;;;;5.00;1.85;;;8.60;79.80;;;;;;5028200;28;20038;-44
2021/12/02 02:14:42;;;;;;;6.10;1.52;;;8.60;79.80;;;;;;5005131;28;20048;-44
2021/12/02 02:17:32;;;;;;;5.40;2.15;;;8.60;79.90;;;;;;5017126;28;20661;-44
2021/12/02 02:20:04;;;;;;;7.65;1.92;;;8.50;80.00;;;;;;5032330;28;20095;-46
2021/12/02 02:22:33;;;;;;;3.25;2.33;;;8.60;79.90;;;;;;5032364;28;20072;-47
2021/12/02 02:25:01;;;;;;;5.45;2.35;;;8.50;79.90;;;;;;5010342;28;20504;-45
2021/12/02 02:27:27;;;;;;;4.20;1.85;;;8.50;80.00;;;;;;5009534;28;20123;-45
2021/12/02 02:29:54;;;;;;;3.80;1.70;;;8.60;80.00;;;;;;5030510;28;20064;-44
2021/12/02 02:32:25;;;;;;;6.45;2.25;;;8.50;80.00;;;;;;5030434;28;20111;-45
2021/12/02 02:34:56;;;;;;;6.55;2.15;;;8.50;80.00;;;;;;5025280;28;20053;-45
2021/12/02 02:37:31;;;;;;;4.88;2.50;;;8.60;80.10;;;;;;5016548;28;20583;-45
2021/12/02 02:40:06;;;;;;;3.20;1.90;;;8.50;80.00;;;;;;5030884;28;20280;-47
2021/12/02 02:42:36;;;;;;;5.80;2.20;;;8.60;80.00;;;;;;5033085;28;20108;-47
2021/12/02 02:45:04;;;;;;;3.35;1.70;;;8.60;80.00;;;;;;5013886;28;20246;-45
2021/12/02 02:47:31;;;;;;;6.07;2.10;;;8.60;79.90;;;;;;5016571;28;20097;-45
2021/12/02 02:49:57;;;;;;;2.95;1.52;;;8.60;79.80;;;;;;5030904;28;20049;-44
2021/12/02 02:52:25;;;;;;;3.13;1.75;;;8.60;79.70;;;;;;5031443;28;20046;-45
2021/12/02 02:54:52;;;;;;;2.05;1.33;;;8.50;79.60;;;;;;5025572;28;20048;-45
2021/12/02 02:57:25;;;;;;;5.50;1.50;;;8.60;79.50;;;;;;5015216;28;20050;-44
2021/12/02 03:02:34;;;;;;;4.22;1.40;;;8.50;79.00;;;;;;5031820;28;20042;-45
2021/12/02 03:05:19;;;;;;;6.18;1.40;;;8.50;78.80;;;;;;5012513;28;20042;-44
2021/12/02 03:07:55;;;;;;;4.10;1.50;;;8.50;78.50;;;;;;5024927;28;20049;-44
2021/12/02 03:12:58;;;;;;;3.47;1.70;;;8.50;78.70;;;;;;5012160;28;20517;-45
2021/12/02 03:18:11;;;;;;;2.72;1.83;;;8.40;78.90;;;;;;5031944;28;20041;-46
2021/12/02 03:20:40;;;;;;;4.70;1.85;;;8.40;79.00;;;;;;5029644;28;20049;-46
2021/12/02 03:23:07;;;;;;;3.80;1.52;;;8.40;78.90;;;;;;5013285;28;20046;-45
2021/12/02 03:25:34;;;;;;;5.25;1.88;;;8.40;78.90;;;;;;5015433;28;20099;-46
2021/12/02 03:28:03;;;;;;;3.17;2.22;;;8.40;78.90;;;;;;5031875;28;20493;-44
2021/12/02 03:30:30;;;;;;;3.15;2.08;;;8.40;78.80;;;;;;5025898;28;20050;-45
2021/12/02 03:32:57;;;;;;;4.75;2.88;;;8.40;78.70;;;;;;5048531;22;20053;-47
2021/12/02 03:35:24;;;;;;;4.53;2.25;;;8.30;78.70;;;;;;5030890;28;20042;-47
2021/12/02 03:37:51;;;;;;;6.95;2.75;;;8.30;78.70;;;;;;5031183;28;20073;-46
2021/12/02 03:40:20;;;;;;;3.88;2.17;;;8.30;78.70;;;;;;5028127;28;20042;-46
2021/12/02 03:42:50;;;;;;;3.08;2.55;;;8.30;78.70;;;;;;5003420;28;20041;-46
2021/12/02 03:45:23;;;;;;;4.93;2.92;;;8.30;78.60;;;;;;5010037;28;20045;-46
2021/12/02 03:47:53;;;;;;;4.35;2.40;;;8.30;78.30;;;;;;5012301;28;20058;-46
2021/12/02 03:50:20;;;;;;;5.60;2.92;;;8.20;78.00;;;;;;5011367;28;20502;-48
2021/12/02 03:52:48;;;;;;;5.28;3.17;;;8.20;78.10;;;;;;5000485;28;20045;-46
2021/12/02 03:55:18;;;;;;;4.97;3.35;;;8.20;78.30;;;;;;5003046;28;20502;-47
2021/12/02 03:57:45;;;;;;;3.15;2.83;;;8.10;78.50;;;;;;4998093;28;20041;-46
2021/12/02 04:00:12;;;;;;;6.63;3.05;;;8.10;78.60;;;;;;5004077;28;20042;-46
2021/12/02 04:02:42;;;;;;;6.07;3.60;;;8.10;78.50;;;;;;4999323;28;20044;-46
2021/12/02 04:05:12;;;;;;;4.90;3.17;;;8.10;78.40;;;;;;5010597;28;20046;-46
2021/12/02 04:07:43;;;;;;;4.57;2.47;;;8.00;78.30;;;;;;4982938;28;20034;-47
2021/12/02 04:10:12;;;;;;;4.63;2.50;;;8.00;78.30;;;;;;4985238;28;20060;-47
2021/12/02 04:15:24;;;;;;;4.00;2.58;;;8.00;78.20;;;;;;5000865;28;20046;-46
2021/12/02 04:17:51;;;;;;;5.85;2.67;;;7.90;78.10;;;;;;4990499;28;20054;-46
2021/12/02 04:20:23;;;;;;;3.30;2.10;;;7.90;78.10;;;;;;4995358;28;20501;-46
2021/12/02 04:22:56;;;;;;;4.82;2.47;;;7.90;78.00;;;;;;5010544;28;20042;-46
2021/12/02 04:25:28;;;;;;;3.45;2.45;;;7.80;77.90;;;;;;5009193;28;20100;-47
2021/12/02 04:27:55;;;;;;;4.03;1.88;;;7.70;77.90;;;;;;5009651;28;20096;-46
2021/12/02 04:30:25;;;;;;;4.05;1.90;;;7.70;78.00;;;;;;4992570;28;20038;-46
2021/12/02 04:32:52;;;;;;;5.80;1.80;;;7.70;78.00;;;;;;5009664;28;20077;-47
2021/12/02 04:35:27;;;;;;;3.58;1.90;;;7.70;78.10;;;;;;5009499;28;20046;-46
2021/12/02 04:37:53;;;;;;;4.85;1.92;;;7.60;78.10;;;;;;4992861;28;20042;-46
2021/12/02 04:40:24;;;;;;;4.35;2.13;;;7.60;78.20;;;;;;5004758;28;20443;-46
2021/12/02 04:42:51;;;;;;;2.58;1.83;;;7.60;78.40;;;;;;5001257;28;20074;-47
2021/12/02 04:45:18;;;;;;;4.68;1.25;;;7.60;78.40;;;;;;5007721;28;20065;-45
2021/12/02 04:47:45;;;;;;;1.63;1.10;;;7.50;78.40;;;;;;5009969;28;20112;-45
2021/12/02 04:50:11;;;;;;;5.75;1.73;;;7.50;78.30;;;;;;5009626;28;20096;-45
2021/12/02 04:52:39;;;;;;;4.22;2.10;;;7.50;78.40;;;;;;5001031;28;20045;-46
2021/12/02 04:55:08;;;;;;;4.70;1.08;;;7.50;78.50;;;;;;5008119;28;20038;-46
2021/12/02 04:57:35;;;;;;;2.78;1.38;;;7.50;78.50;;;;;;4994630;28;20038;-46
2021/12/02 05:00:05;;;;;;;3.67;1.58;;;7.50;78.70;;;;;;4982785;28;20047;-45
2021/12/02 05:02:32;;;;;;;7.72;2.10;;;7.50;78.60;;;;;;4983026;28;20129;-48
2021/12/02 05:05:01;;;;;;;4.32;1.60;;;7.50;78.70;;;;;;4978958;28;20495;-48
2021/12/02 05:07:28;;;;;;;2.28;0.95;;;7.50;78.50;;;;;;4987049;28;20057;-46
2021/12/02 05:09:54;;;;;;;4.80;1.27;;;7.50;78.10;;;;;;4984776;28;20392;-45
2021/12/02 05:12:24;;;;;;;3.10;1.10;;;7.50;77.90;;;;;;4987926;28;20046;-46
2021/12/02 05:14:51;;;;;;;2.58;1.30;;;7.50;77.80;;;;;;4984334;28;20089;-49
2021/12/02 05:17:26;;;;;;;6.03;1.10;;;7.40;77.60;;;;;;5001562;28;20069;-47
2021/12/02 05:19:53;;;;;;;3.47;0.90;;;7.40;77.60;;;;;;5004899;28;20039;-48
2021/12/02 05:22:19;;;;;;;4.28;0.98;;;7.40;77.60;;;;;;4980324;28;20105;-46
2021/12/02 05:24:46;;;;;;;1.85;0.75;;;7.40;77.70;;;;;;4987719;28;20100;-47
2021/12/02 05:27:14;;;;;;;2.90;0.85;;;7.30;77.60;;;;;;4993682;28;20043;-47
2021/12/02 05:29:41;;;;;;;1.40;0.93;;;7.30;77.40;;;;;;4984608;28;20035;-47
2021/12/02 05:32:08;;;;;;;3.22;0.75;;;7.30;77.40;;;;;;4978695;28;20475;-46
2021/12/02 05:34:35;;;;;;;0.55;0.40;;;7.30;77.50;;;;;;4991815;28;20092;-46
2021/12/02 05:37:04;;;;;;;0.73;0.60;;;7.20;78.10;;;;;;4997123;28;20046;-49
2021/12/02 05:39:31;;;;;;;4.68;1.20;;;7.30;77.60;;;;;;4987518;28;20043;-46
2021/12/02 05:41:58;;;;;;;3.47;1.60;;;7.20;77.60;;;;;;4979568;28;20387;-46
2021/12/02 05:44:24;;;;;;;1.90;1.80;;;7.20;77.60;;;;;;4992580;28;20042;-49
2021/12/02 05:46:52;;;;;;;3.88;1.70;;;7.20;78.30;;;;;;4993712;28;20038;-48
2021/12/02 05:49:18;;;;;;;4.60;2.17;;;7.10;77.60;;;;;;4982033;28;20705;-51
2021/12/02 05:51:46;;;;;;;2.53;1.73;;;7.10;77.50;;;;;;4989473;28;20042;-46
2021/12/02 05:54:12;;;;;;;3.53;1.75;;;7.10;77.50;;;;;;4993903;28;20045;-47
2021/12/02 05:56:42;;;;;;;3.92;2.40;;;7.10;77.60;;;;;;5011577;28;20050;-47
2021/12/02 05:59:08;;;;;;;3.33;2.00;;;7.00;77.60;;;;;;5012825;28;20810;-46
2021/12/02 06:01:40;;;;;;;5.35;2.15;;;7.00;77.80;;;;;;5007677;28;20047;-50
2021/12/02 06:04:09;;;;;;;4.03;1.55;;;7.00;78.00;;;;;;5005076;28;20145;-49
2021/12/02 06:06:36;;;;;;;4.78;2.10;;;7.00;78.20;;;;;;5012399;28;20430;-47
2021/12/02 06:09:05;;;;;;;3.38;1.15;;;7.00;78.50;;;;;;4996915;28;20456;-47
2021/12/02 06:11:32;;;;;;;2.42;1.02;;;7.00;78.60;;;;;;4989200;28;20046;-50
2021/12/02 06:14:00;;;;;;;9.05;2.25;;;7.00;78.70;;;;;;5003214;28;20080;-49
2021/12/02 06:16:28;;;;;;;2.90;1.05;;;7.00;78.80;;;;;;4988498;28;20540;-50
2021/12/02 06:18:57;;;;;;;1.88;0.90;;;7.00;78.70;;;;;;4992672;28;20046;-46
2021/12/02 06:21:26;;;;;;;2.92;0.93;;;7.00;78.60;;;;;;4993166;28;20530;-47
2021/12/02 06:24:01;;;;;;;2.08;0.95;;;7.00;78.40;;;;;;5004716;28;20038;-50
2021/12/02 06:26:28;;;;;;;4.13;1.30;;;7.00;78.30;;;;;;5011146;28;20046;-49
2021/12/02 06:28:57;;;;;;;2.60;1.15;;;7.00;78.20;;;;;;5008181;28;20057;-50
2021/12/02 06:31:27;;;;;;;1.75;0.57;;;7.00;78.10;;;;;;4994210;28;20057;-47
2021/12/02 06:33:54;;;;;;;2.20;0.82;;;7.00;78.00;;;;;;4999389;28;20081;-54
2021/12/02 06:36:21;;;;;;;2.25;0.77;;;7.00;78.60;;;;;;4996685;28;20120;-46
2021/12/02 06:38:58;;;;;;;1.92;0.93;;;7.00;78.10;;;;;;4990618;28;20133;-48
2021/12/02 06:41:25;;;;;;;0.85;0.50;;;7.00;78.10;;;;;;5002193;28;20042;-49
2021/12/02 06:43:51;;;;;;;3.20;0.57;;;7.00;78.10;;;;;;5009251;28;20092;-50
2021/12/02 06:46:18;;;;;;;3.25;0.50;;;7.00;78.10;;;;;;5009379;28;20705;-50
2021/12/02 06:48:47;;;;;;;2.15;0.80;;;7.00;78.00;;;;;;4990102;28;20042;-49
2021/12/02 06:51:15;;;;;;;1.27;0.90;;;7.00;78.00;;;;;;5001296;28;20505;-50
2021/12/02 06:53:42;;;;;;;2.20;0.82;;;7.00;78.10;;;;;;5010912;28;20045;-49
2021/12/02 06:56:09;;;;;;;1.33;1.05;;;7.00;78.10;;;;;;4997875;28;20050;-47
2021/12/02 06:58:38;;;;;;;3.42;1.40;;;7.00;78.20;;;;;;4996339;28;20084;-50
2021/12/02 07:01:05;;;;;;;2.42;1.67;;;7.00;78.20;;;;;;5010893;28;20867;-49
2021/12/02 07:03:32;;;;;;;2.53;1.45;;;6.90;78.10;;;;;;4995871;28;20047;-47
2021/12/02 07:05:59;;;;;;;1.98;1.60;;;7.00;78.10;;;;;;4990951;28;20042;-50
2021/12/02 07:08:26;;;;;;;3.63;1.88;;;6.90;78.10;;;;;;4982910;28;20047;-49
2021/12/02 07:10:52;;;;;;;4.85;1.83;;;6.90;78.20;;;;;;5006939;28;20045;-48
2021/12/02 07:13:19;;;;;;;1.98;1.75;;;6.90;78.20;;;;;;5004583;28;20041;-48
2021/12/02 07:15:51;;;;;;;5.60;2.00;;;7.00;78.30;;;;;;4995805;28;20043;-49
2021/12/02 07:18:18;;;;;;;2.40;1.90;;;6.90;78.40;;;;;;5004868;28;20065;-48
2021/12/02 07:20:48;;;;;;;2.80;2.30;;;6.90;78.30;;;;;;5010667;28;20053;-47
2021/12/02 07:23:18;;;;;;;3.35;2.28;;;6.90;78.10;;;;;;4996839;28;20481;-49
2021/12/02 07:25:47;;;;;;;3.25;2.35;;;6.90;78.10;;;;;;5006173;28;20042;-50
2021/12/02 07:28:16;;;;;;;3.95;2.10;;;6.90;78.10;;;;;;5010147;28;20069;-50
2021/12/02 07:30:44;;;;;;;1.80;1.70;;;6.90;78.10;;;;;;5010389;28;20045;-47
2021/12/02 07:33:13;;;;;;;2.28;2.08;;;6.90;78.20;;;;;;4995748;28;20038;-45
2021/12/02 07:35:40;;;;;;;4.07;2.08;;;6.90;78.00;;;;;;4992528;28;20054;-46
2021/12/02 07:38:06;;;;;;;3.35;2.25;;;6.80;78.00;;;;;;5001552;28;20041;-46
2021/12/02 07:40:36;;;;;;;2.38;2.10;;;6.80;77.80;;;;;;5012005;28;20054;-46
2021/12/02 07:43:04;;;;;;;3.75;2.70;;;6.80;77.90;;;;;;5012120;28;20042;-46
2021/12/02 07:45:34;;;;;;;3.90;1.92;;;6.80;78.20;;;;;;4993415;28;20085;-46
2021/12/02 07:48:04;;;;;;;2.55;2.35;;;6.80;78.30;;;;;;5009285;28;20568;-48
2021/12/02 07:50:31;;;;;;;2.60;2.40;;;6.70;78.50;;;;;;5001314;28;20051;-47
2021/12/02 07:53:03;;;;;;;3.35;2.58;;;6.80;78.70;;;;;;4995672;28;20466;-47
2021/12/02 07:55:31;;;;;;;2.15;2.03;;;6.80;78.80;;;;;;5010193;28;20127;-46
2021/12/02 07:57:58;;;;;;;4.32;2.47;;;6.80;78.80;;;;;;4999099;28;20046;-46
2021/12/02 08:00:27;;;;;;;3.50;3.05;;;6.80;78.70;;;;;;4991998;28;20038;-47
2021/12/02 08:02:55;;;;;;;3.25;2.80;;;6.80;78.70;;;;;;4988654;28;20117;-46
2021/12/02 08:05:23;;;;;;;4.55;2.22;;;6.80;79.20;;;;;;4999515;28;20045;-46
2021/12/02 08:07:51;;;;;;;2.95;2.72;;;6.80;78.50;;;;;;5011403;28;20045;-46
2021/12/02 08:10:19;;;;;;;2.58;2.38;;;6.80;78.80;;;;;;4996999;28;20046;-48
2021/12/02 08:12:47;;;;;;;2.65;2.42;;;6.80;79.50;;;;;;4991818;28;20054;-50
2021/12/02 08:15:23;;;;;;;3.10;2.28;;;6.80;78.90;;;;;;4988400;28;20043;-50
2021/12/02 08:17:51;;;;;;;2.72;2.22;;;6.80;78.60;;;;;;5006761;28;20552;-49
2021/12/02 08:20:20;;;;;;;2.47;2.28;;;6.80;78.60;;;;;;4990354;28;20054;-46
2021/12/02 08:22:47;;;;;;;5.55;2.13;;;6.80;78.70;;;;;;4989491;28;20093;-50
2021/12/02 08:25:15;;;;;;;2.40;2.20;;;6.80;78.80;;;;;;5007404;28;20034;-48
2021/12/02 08:27:44;;;;;;;3.38;2.20;;;6.80;78.80;;;;;;5011410;28;20045;-49
2021/12/02 08:30:13;;;;;;;2.85;2.65;;;6.90;78.80;;;;;;5011280;28;20046;-50
2021/12/02 08:32:42;;;;;;;3.35;2.80;;;6.80;78.70;;;;;;4997698;28;20789;-50
2021/12/02 08:35:11;;;;;;;4.50;3.30;;;6.90;78.60;;;;;;5002381;28;20104;-47
2021/12/02 08:37:43;;;;;;;6.13;4.07;;;6.90;78.60;;;;;;5011465;28;20042;-50
2021/12/02 08:40:12;;;;;;;4.95;3.97;;;6.90;78.50;;;;;;5011008;28;20045;-49
2021/12/02 08:42:39;;;;;;;4.57;4.00;;;6.90;78.40;;;;;;4992630;28;20064;-47
2021/12/02 08:45:06;;;;;;;5.25;4.05;;;6.90;78.20;;;;;;5006575;28;20062;-46
2021/12/02 08:47:34;;;;;;;4.20;3.42;;;6.90;78.10;;;;;;4998684;28;20466;-48
2021/12/02 08:50:01;;;;;;;4.03;2.55;;;6.90;78.10;;;;;;4991155;28;20057;-48
2021/12/02 08:52:28;;;;;;;4.57;2.72;;;6.90;78.00;;;;;;4994207;28;20038;-46
2021/12/02 08:54:59;;;;;;;3.50;1.90;;;6.90;77.90;;;;;;5006260;28;20750;-49
2021/12/02 08:57:44;;;;;;;2.97;2.42;;;6.90;77.80;;;;;;4999236;28;20042;-47
2021/12/02 09:00:14;;;;;;;3.15;2.10;;;6.90;77.70;;;;;;5016132;28;20050;-48
2021/12/02 09:02:41;;;;;;;2.80;1.65;;;6.90;77.60;;;;;;5003097;28;20037;-47
2021/12/02 09:05:08;;;;;;;3.42;1.63;;;6.80;77.30;;;;;;4995532;28;20121;-50
2021/12/02 09:07:35;;;;;;;1.67;1.23;;;6.80;77.20;;;;;;4981068;28;20050;-47
2021/12/02 09:10:04;;;;;;;3.03;1.58;;;6.80;77.20;;;;;;5004173;28;20042;-46
2021/12/02 09:12:32;;;;;;;2.63;2.25;;;6.70;77.00;;;;;;5008611;28;20049;-46
2021/12/02 09:14:59;;;;;;;2.47;1.77;;;6.70;77.10;;;;;;5000848;28;20081;-46
2021/12/02 09:17:26;;;;;;;1.80;1.70;;;6.70;77.20;;;;;;4988716;28;20042;-46
2021/12/02 09:19:53;;;;;;;2.58;2.20;;;6.60;77.10;;;;;;4993307;28;20383;-46
2021/12/02 09:22:20;;;;;;;2.88;2.00;;;6.60;77.10;;;;;;5010319;28;20042;-45
2021/12/02 09:24:47;;;;;;;3.88;2.25;;;6.60;77.40;;;;;;5010197;28;20165;-47
2021/12/02 09:27:14;;;;;;;2.28;2.03;;;6.60;77.60;;;;;;5003760;28;20451;-46
2021/12/02 09:29:40;;;;;;;2.13;1.95;;;6.60;77.80;;;;;;5010380;28;20046;-50
2021/12/02 09:32:11;;;;;;;2.78;2.03;;;6.50;77.80;;;;;;5009102;28;20100;-47
2021/12/02 09:34:38;;;;;;;2.40;2.20;;;6.60;77.90;;;;;;5023368;22;20107;-76
2021/12/02 09:37:05;;;;;;;2.00;1.90;;;6.50;77.90;;;;;;5029733;28;20042;-76
2021/12/02 09:39:34;;;;;;;5.45;2.45;;;6.50;77.80;;;;;;5018388;28;20046;-76
2021/12/02 09:42:05;;;;;;;3.20;2.45;;;6.60;78.00;;;;;;5030257;28;20047;-76
2021/12/02 09:44:58;;;;;;;3.97;2.80;;;6.50;78.10;;;;;;5010924;28;20038;-76
2021/12/02 09:47:25;;;;;;;3.55;2.10;;;6.50;78.20;;;;;;5017093;28;20117;-76
2021/12/02 09:49:54;;;;;;;5.30;2.75;;;6.60;78.40;;;;;;5010584;28;20041;-76
2021/12/02 09:52:29;;;;;;;3.40;2.25;;;6.60;78.50;;;;;;5027311;28;20093;-76
2021/12/02 09:55:03;;;;;;;2.13;1.90;;;6.50;78.60;;;;;;5019843;28;20117;-76
2021/12/02 09:57:34;;;;;;;2.80;2.22;;;6.60;78.70;;;;;;5000602;28;20058;-76
2021/12/02 10:00:01;;;;;;;2.75;2.55;;;6.60;78.70;;;;;;5025521;28;20049;-76
2021/12/02 10:02:39;;;;;;;2.90;2.15;;;6.60;78.80;;;;;;5017032;28;20073;-76
2021/12/02 10:05:10;;;;;;;2.20;2.00;;;6.60;78.80;;;;;;5005910;28;20046;-76
2021/12/02 10:07:52;;;;;;;2.65;1.70;;;6.60;78.90;;;;;;5014319;28;20520;-76
2021/12/02 10:13:18;;;;;;;3.35;1.60;;;6.70;79.10;;;;;;5012854;28;20058;-76
2021/12/02 10:19:05;;;;;;;4.00;1.70;;;6.80;79.20;;;;;;5009091;28;20033;-76
2021/12/02 10:21:57;;;;;;;4.88;1.83;;;6.90;79.20;;;;;;5008717;28;20076;-76
2021/12/02 10:24:26;;;;;;;3.33;1.52;;;7.00;78.70;;;;;;5009253;28;20490;-76
2021/12/02 10:27:13;;;;;;;5.53;2.53;;;7.00;78.80;;;;;;5004716;28;20052;-75
2021/12/02 10:29:47;;;;;;;2.38;1.98;;;7.10;78.60;;;;;;5029048;28;20045;-76
2021/12/02 10:32:25;;;;;;;2.88;2.00;;;7.10;78.70;;;;;;5022411;28;20121;-76
2021/12/02 10:35:02;;;;;;;2.83;1.63;;;7.20;77.60;;;;;;5003176;28;20042;-76
2021/12/02 10:37:39;;;;;;;4.28;2.45;;;7.20;77.80;;;;;;5012797;28;20042;-76
2021/12/02 10:40:15;;;;;;;2.72;1.70;;;7.30;77.90;;;;;;5006126;28;20041;-76
2021/12/02 10:42:45;;;;;;;4.97;1.67;;;7.30;77.70;;;;;;5006093;28;20045;-75
2021/12/02 10:45:22;;;;;;;5.00;2.33;;;7.40;77.60;;;;;;5010212;28;20037;-76
2021/12/02 10:47:51;;;;;;;4.60;2.35;;;7.40;77.00;;;;;;5022036;28;20073;-75
2021/12/02 10:50:19;;;;;;;2.10;1.65;;;7.40;76.90;;;;;;5005071;28;20053;-76
2021/12/02 10:52:46;;;;;;;5.13;2.42;;;7.40;77.10;;;;;;5006772;28;20046;-76
2021/12/02 10:55:16;;;;;;;2.70;1.90;;;7.40;77.00;;;;;;5001106;28;20065;-76
2021/12/02 10:57:55;;;;;;;3.72;1.90;;;7.40;77.10;;;;;;5003960;28;20042;-76
2021/12/02 11:00:25;;;;;;;5.13;2.20;;;7.50;76.90;;;;;;5006482;28;20061;-76
2021/12/02 11:02:55;;;;;;;4.03;1.90;;;7.50;76.90;;;;;;5003052;28;20046;-77
2021/12/02 11:05:28;;;;;;;2.58;1.90;;;7.50;76.80;;;;;;4992617;28;20070;-77
2021/12/02 11:08:08;;;;;;;6.35;2.88;;;7.60;76.60;;;;;;4992013;28;20495;-77
2021/12/02 11:10:36;;;;;;;4.32;2.30;;;7.60;76.10;;;;;;5010840;28;20536;-77
2021/12/02 11:13:05;;;;;;;17.50;7.97;;;7.60;76.20;;;;;;4999065;28;20046;-77
2021/12/02 11:15:34;;;;;;;8.77;4.80;;;7.60;76.00;;;;;;5005272;28;20418;-77
2021/12/02 11:18:05;;;;;;;7.63;4.13;;;7.60;76.00;;;;;;5027394;28;20516;-77
2021/12/02 11:20:46;;;;;;;4.47;2.70;;;7.60;75.90;;;;;;5008130;28;20061;-77
2021/12/02 11:23:15;;;;;;;4.00;2.20;;;7.60;75.40;;;;;;5007985;28;20029;-77
2021/12/02 11:26:10;;;;;;;2.60;1.98;;;7.60;75.70;;;;;;5013121;28;20041;-77
2021/12/02 11:28:40;;;;;;;2.58;1.80;;;7.60;75.10;;;;;;5030798;28;20680;-77
2021/12/02 11:31:13;;;;;;;3.85;1.75;;;7.60;75.30;;;;;;5008289;28;20066;-77
2021/12/02 11:33:42;;;;;;;4.28;1.95;;;7.60;74.20;;;;;;5015469;28;20038;-77
2021/12/02 11:36:25;;;;;;;1.45;1.35;;;7.60;75.00;;;;;;5027714;28;20051;-77
2021/12/02 11:38:56;;;;;;;2.53;1.75;;;7.60;74.60;;;;;;5017780;28;20498;-77
2021/12/02 11:41:23;;;;;;;1.85;1.65;;;7.60;75.90;;;;;;5022759;28;20049;-77
2021/12/02 11:43:50;;;;;;;3.20;1.65;;;7.60;75.30;;;;;;5030469;28;20056;-77
2021/12/02 11:46:17;;;;;;;2.80;1.98;;;7.50;74.90;;;;;;4999033;28;20085;-77
2021/12/02 11:48:44;;;;;;;3.83;1.83;;;7.50;74.90;;;;;;5003145;28;20120;-77
2021/12/02 11:51:14;;;;;;;2.58;1.42;;;7.50;75.00;;;;;;5000878;28;20406;-77
2021/12/02 11:53:41;;;;;;;2.85;1.83;;;7.50;74.90;;;;;;5014402;28;20041;-77
2021/12/02 11:56:13;;;;;;;2.15;1.83;;;7.60;75.20;;;;;;5029651;28;20042;-77
2021/12/02 11:58:40;;;;;;;;;;;7.60;75.30;;;;;;5004697;28;20052;-77
2021/12/02 12:01:18;;;;;;;2.40;1.85;;;7.70;75.20;;;;;;5018419;28;19921;-77
2021/12/02 12:03:49;;;;;;;2.30;1.70;;;7.70;74.90;;;;;;5005823;28;20044;-77
2021/12/02 12:06:24;;;;;;;3.30;1.98;;;7.70;74.80;;;;;;5003808;28;20045;-77
2021/12/02 12:08:52;;;;;;;7.30;2.58;;;7.70;74.70;;;;;;5004409;28;20077;-77
2021/12/02 12:11:24;;;;;;;3.67;2.22;;;7.70;75.30;;;;;;5009719;28;20049;-77
2021/12/02 12:14:02;;;;;;;3.63;2.08;;;7.80;75.10;;;;;;5040536;22;20057;-48
2021/12/02 12:16:34;;;;;;;3.00;2.00;;;7.80;75.00;;;;;;5008317;28;20061;-47
2021/12/02 12:19:26;;;;;;;6.35;2.58;;;7.90;74.70;;;;;;5006978;28;20053;-49
2021/12/02 12:21:56;;;;;;;1.90;1.80;;;7.90;74.50;;;;;;5011819;28;20092;-50
2021/12/02 12:24:40;;;;;;;3.58;1.92;;;7.90;74.80;;;;;;5022031;28;20041;-48
2021/12/02 12:27:27;;;;;;;2.00;1.90;;;8.00;74.40;;;;;;5007923;28;20041;-47
2021/12/02 12:30:07;;;;;;;3.42;1.85;;;8.00;74.30;;;;;;5023337;28;20053;-47
2021/12/02 12:32:49;;;;;;;1.42;1.30;;;8.00;73.70;;;;;;5002375;28;20140;-47
2021/12/02 12:38:23;;;;;;;2.97;2.03;;;8.00;74.00;;;;;;5025545;28;20046;-48
2021/12/02 12:41:14;;;;;;;3.92;2.33;;;8.00;73.80;;;;;;4988875;28;20050;-49
2021/12/02 12:43:46;;;;;;;4.00;2.13;;;8.00;73.40;;;;;;5010560;28;20264;-51
2021/12/02 12:46:26;;;;;;;4.38;2.53;;;7.90;73.90;;;;;;5007548;28;20505;-50
2021/12/02 12:48:55;;;;;;;6.20;2.65;;;8.00;73.80;;;;;;5019866;28;20541;-49
2021/12/02 12:51:28;;;;;;;4.35;3.00;;;7.90;73.90;;;;;;5028422;28;20049;-48
2021/12/02 12:54:00;;;;;;;5.18;2.58;;;8.00;74.10;;;;;;5028090;28;20097;-50
2021/12/02 12:56:39;;;;;;;5.57;3.08;;;7.90;74.30;;;;;;5014787;28;20139;-49
2021/12/02 12:59:12;;;;;;;3.53;2.40;;;7.90;74.40;;;;;;5029075;28;20050;-48
2021/12/02 13:01:52;;;;;;;3.67;2.47;;;8.00;74.50;;;;;;5024430;28;20089;-48
2021/12/02 13:04:22;;;;;;;3.55;2.38;;;8.00;74.40;;;;;;5005846;28;20038;-48
2021/12/02 13:07:07;;;;;;;3.05;2.75;;;8.00;74.40;;;;;;5018591;28;20045;-50
2021/12/02 13:12:49;;;;;;;5.90;2.90;;;8.10;74.30;;;;;;5007353;28;20044;-49
2021/12/02 13:15:25;;;;;;;2.42;1.95;;;8.10;74.80;;;;;;5011515;28;20409;-48
2021/12/02 13:17:57;;;;;;;3.67;2.08;;;8.20;74.50;;;;;;5021393;28;20057;-49
2021/12/02 13:20:34;;;;;;;2.95;2.67;;;8.20;74.20;;;;;;5008369;28;20049;-49
2021/12/02 13:23:16;;;;;;;3.03;2.05;;;8.30;74.00;;;;;;5004326;28;20038;-50
2021/12/02 13:25:47;;;;;;;4.85;2.40;;;8.30;73.40;;;;;;5014308;28;20118;-49
2021/12/02 13:28:19;;;;;;;3.08;2.50;;;8.30;73.70;;;;;;5026034;28;20045;-50
2021/12/02 13:30:48;;;;;;;2.95;2.30;;;8.20;73.50;;;;;;5029170;28;20053;-48
2021/12/02 13:33:16;;;;;;;2.58;1.88;;;8.20;73.70;;;;;;5013857;28;20494;-51
2021/12/02 13:35:43;;;;;;;4.47;2.70;;;8.20;73.40;;;;;;5024321;28;20104;-49
2021/12/02 13:38:13;;;;;;;2.65;1.75;;;8.20;73.20;;;;;;5028369;28;20136;-48
2021/12/02 13:40:40;;;;;;;1.55;1.42;;;8.10;73.20;;;;;;5019219;28;20033;-48